sensor_id;sensor_type;location;lat;lon;timestamp;P1;durP1;ratioP1;P2;durP2;ratioP2
2474;SDS011;1248;48.694;10.160;2024-01-15T00:01:52;40.40;;;18.07;;
2474;SDS011;1248;48.694;10.160;2024-01-15T00:04:19;41.07;;;18.87;;
2474;SDS011;1248;48.694;10.160;2024-01-15T00:06:46;41.57;;;19.03;;
2474;SDS011;1248;48.694;10.160;2024-01-15T00:09:13;37.63;;;18.13;;
2474;SDS011;1248;48.694;10.160;2024-01-15T00:11:40;34.73;;;18.03;;
2474;SDS011;1248;48.694;10.160;2024-01-15T00:14:07;39.47;;;17.00;;
2474;SDS011;1248;48.694;10.160;2024-01-15T00:16:34;34.30;;;18.20;;
2474;SDS011;1248;48.694;10.160;2024-01-15T00:19:03;34.93;;;18.10;;
2474;SDS011;1248;48.694;10.160;2024-01-15T00:21:30;35.60;;;17.40;;
2474;SDS011;1248;48.694;10.160;2024-01-15T00:23:57;38.30;;;16.90;;
2474;SDS011;1248;48.694;10.160;2024-01-15T00:26:24;33.63;;;14.43;;
2474;SDS011;1248;48.694;10.160;2024-01-15T00:28:51;29.50;;;15.83;;
2474;SDS011;1248;48.694;10.160;2024-01-15T00:31:18;35.93;;;17.00;;
2474;SDS011;1248;48.694;10.160;2024-01-15T00:33:45;35.43;;;15.80;;
2474;SDS011;1248;48.694;10.160;2024-01-15T00:36:13;40.17;;;16.80;;
2474;SDS011;1248;48.694;10.160;2024-01-15T00:38:42;37.10;;;17.90;;
2474;SDS011;1248;48.694;10.160;2024-01-15T00:41:10;33.03;;;16.70;;
2474;SDS011;1248;48.694;10.160;2024-01-15T00:43:37;26.50;;;13.60;;
2474;SDS011;1248;48.694;10.160;2024-01-15T00:46:04;34.47;;;17.70;;
2474;SDS011;1248;48.694;10.160;2024-01-15T00:48:31;35.30;;;16.07;;
2474;SDS011;1248;48.694;10.160;2024-01-15T00:50:59;39.23;;;18.97;;
2474;SDS011;1248;48.694;10.160;2024-01-15T00:53:27;32.47;;;16.07;;
2474;SDS011;1248;48.694;10.160;2024-01-15T00:55:54;39.87;;;15.60;;
2474;SDS011;1248;48.694;10.160;2024-01-15T00:58:21;35.87;;;17.13;;
2474;SDS011;1248;48.694;10.160;2024-01-15T01:00:48;40.17;;;18.97;;
2474;SDS011;1248;48.694;10.160;2024-01-15T01:03:15;37.20;;;18.77;;
2474;SDS011;1248;48.694;10.160;2024-01-15T01:05:42;45.80;;;18.43;;
2474;SDS011;1248;48.694;10.160;2024-01-15T01:08:10;36.07;;;18.70;;
2474;SDS011;1248;48.694;10.160;2024-01-15T01:10:38;35.13;;;17.37;;
2474;SDS011;1248;48.694;10.160;2024-01-15T01:13:08;35.63;;;17.17;;
2474;SDS011;1248;48.694;10.160;2024-01-15T01:15:35;35.57;;;15.23;;
2474;SDS011;1248;48.694;10.160;2024-01-15T01:18:02;32.80;;;17.10;;
2474;SDS011;1248;48.694;10.160;2024-01-15T01:20:30;31.80;;;17.40;;
2474;SDS011;1248;48.694;10.160;2024-01-15T01:22:57;32.90;;;15.20;;
2474;SDS011;1248;48.694;10.160;2024-01-15T01:25:24;33.23;;;15.60;;
2474;SDS011;1248;48.694;10.160;2024-01-15T01:27:52;36.47;;;17.00;;
2474;SDS011;1248;48.694;10.160;2024-01-15T01:30:19;28.17;;;15.50;;
2474;SDS011;1248;48.694;10.160;2024-01-15T01:32:46;36.00;;;17.97;;
2474;SDS011;1248;48.694;10.160;2024-01-15T01:35:13;27.00;;;16.70;;
2474;SDS011;1248;48.694;10.160;2024-01-15T01:37:40;35.13;;;17.37;;
2474;SDS011;1248;48.694;10.160;2024-01-15T01:40:08;34.77;;;16.87;;
2474;SDS011;1248;48.694;10.160;2024-01-15T01:42:35;30.63;;;16.57;;
2474;SDS011;1248;48.694;10.160;2024-01-15T01:45:04;34.10;;;15.93;;
2474;SDS011;1248;48.694;10.160;2024-01-15T01:47:32;25.33;;;13.70;;
2474;SDS011;1248;48.694;10.160;2024-01-15T01:49:59;28.07;;;15.67;;
2474;SDS011;1248;48.694;10.160;2024-01-15T01:52:26;34.97;;;18.30;;
2474;SDS011;1248;48.694;10.160;2024-01-15T01:54:53;27.03;;;14.77;;
2474;SDS011;1248;48.694;10.160;2024-01-15T01:57:20;28.50;;;14.73;;
2474;SDS011;1248;48.694;10.160;2024-01-15T01:59:47;27.70;;;13.90;;
2474;SDS011;1248;48.694;10.160;2024-01-15T02:02:16;25.27;;;14.53;;
2474;SDS011;1248;48.694;10.160;2024-01-15T02:04:43;23.90;;;13.43;;
2474;SDS011;1248;48.694;10.160;2024-01-15T02:07:10;27.43;;;13.47;;
2474;SDS011;1248;48.694;10.160;2024-01-15T02:09:38;28.93;;;13.40;;
2474;SDS011;1248;48.694;10.160;2024-01-15T02:12:05;20.23;;;11.53;;
2474;SDS011;1248;48.694;10.160;2024-01-15T02:14:33;25.43;;;14.37;;
2474;SDS011;1248;48.694;10.160;2024-01-15T02:17:00;23.97;;;12.63;;
2474;SDS011;1248;48.694;10.160;2024-01-15T02:19:28;31.67;;;13.40;;
2474;SDS011;1248;48.694;10.160;2024-01-15T02:21:55;23.90;;;13.27;;
2474;SDS011;1248;48.694;10.160;2024-01-15T02:24:24;26.13;;;13.50;;
2474;SDS011;1248;48.694;10.160;2024-01-15T02:26:51;16.70;;;10.60;;
2474;SDS011;1248;48.694;10.160;2024-01-15T02:29:18;26.13;;;13.27;;
2474;SDS011;1248;48.694;10.160;2024-01-15T02:31:46;28.07;;;11.87;;
2474;SDS011;1248;48.694;10.160;2024-01-15T02:34:13;26.37;;;11.80;;
2474;SDS011;1248;48.694;10.160;2024-01-15T02:36:40;26.07;;;13.53;;
2474;SDS011;1248;48.694;10.160;2024-01-15T02:39:07;28.80;;;13.00;;
2474;SDS011;1248;48.694;10.160;2024-01-15T02:41:35;18.53;;;10.67;;
2474;SDS011;1248;48.694;10.160;2024-01-15T02:44:02;19.30;;;11.87;;
2474;SDS011;1248;48.694;10.160;2024-01-15T02:46:29;24.60;;;11.70;;
2474;SDS011;1248;48.694;10.160;2024-01-15T02:48:56;23.57;;;13.00;;
2474;SDS011;1248;48.694;10.160;2024-01-15T02:51:23;23.53;;;12.00;;
2474;SDS011;1248;48.694;10.160;2024-01-15T02:53:51;25.50;;;11.63;;
2474;SDS011;1248;48.694;10.160;2024-01-15T02:56:18;25.30;;;12.63;;
2474;SDS011;1248;48.694;10.160;2024-01-15T02:58:47;25.97;;;13.70;;
2474;SDS011;1248;48.694;10.160;2024-01-15T03:01:14;20.93;;;13.27;;
2474;SDS011;1248;48.694;10.160;2024-01-15T03:03:41;18.00;;;10.60;;
2474;SDS011;1248;48.694;10.160;2024-01-15T03:06:08;24.37;;;12.30;;
2474;SDS011;1248;48.694;10.160;2024-01-15T03:08:35;25.87;;;12.13;;
2474;SDS011;1248;48.694;10.160;2024-01-15T03:11:02;21.37;;;11.40;;
2474;SDS011;1248;48.694;10.160;2024-01-15T03:13:29;20.10;;;11.10;;
2474;SDS011;1248;48.694;10.160;2024-01-15T03:15:57;21.97;;;10.50;;
2474;SDS011;1248;48.694;10.160;2024-01-15T03:18:24;20.27;;;10.40;;
2474;SDS011;1248;48.694;10.160;2024-01-15T03:20:51;23.50;;;10.90;;
2474;SDS011;1248;48.694;10.160;2024-01-15T03:23:18;18.63;;;10.67;;
2474;SDS011;1248;48.694;10.160;2024-01-15T03:25:45;22.60;;;11.70;;
2474;SDS011;1248;48.694;10.160;2024-01-15T03:28:12;20.47;;;12.03;;
2474;SDS011;1248;48.694;10.160;2024-01-15T03:30:39;23.33;;;11.60;;
2474;SDS011;1248;48.694;10.160;2024-01-15T03:33:08;21.07;;;10.77;;
2474;SDS011;1248;48.694;10.160;2024-01-15T03:35:35;19.90;;;10.60;;
2474;SDS011;1248;48.694;10.160;2024-01-15T03:38:02;20.47;;;10.90;;
2474;SDS011;1248;48.694;10.160;2024-01-15T03:40:29;20.10;;;11.87;;
2474;SDS011;1248;48.694;10.160;2024-01-15T03:42:56;23.90;;;11.97;;
2474;SDS011;1248;48.694;10.160;2024-01-15T03:45:26;18.20;;;11.00;;
2474;SDS011;1248;48.694;10.160;2024-01-15T03:47:53;20.13;;;10.77;;
2474;SDS011;1248;48.694;10.160;2024-01-15T03:50:21;20.53;;;10.73;;
2474;SDS011;1248;48.694;10.160;2024-01-15T03:52:48;19.63;;;11.57;;
2474;SDS011;1248;48.694;10.160;2024-01-15T03:55:15;23.33;;;11.27;;
2474;SDS011;1248;48.694;10.160;2024-01-15T03:57:42;21.23;;;11.00;;
2474;SDS011;1248;48.694;10.160;2024-01-15T04:00:10;17.03;;;9.60;;
2474;SDS011;1248;48.694;10.160;2024-01-15T04:02:37;21.40;;;10.17;;
2474;SDS011;1248;48.694;10.160;2024-01-15T04:05:05;20.20;;;11.23;;
2474;SDS011;1248;48.694;10.160;2024-01-15T04:07:33;23.60;;;10.23;;
2474;SDS011;1248;48.694;10.160;2024-01-15T04:10:00;14.47;;;10.13;;
2474;SDS011;1248;48.694;10.160;2024-01-15T04:12:28;17.30;;;11.00;;
2474;SDS011;1248;48.694;10.160;2024-01-15T04:14:55;21.80;;;11.73;;
2474;SDS011;1248;48.694;10.160;2024-01-15T04:17:22;19.20;;;10.70;;
2474;SDS011;1248;48.694;10.160;2024-01-15T04:19:49;23.50;;;9.80;;
2474;SDS011;1248;48.694;10.160;2024-01-15T04:22:16;19.70;;;10.37;;
2474;SDS011;1248;48.694;10.160;2024-01-15T04:24:45;22.43;;;10.77;;
2474;SDS011;1248;48.694;10.160;2024-01-15T04:27:12;18.40;;;10.10;;
2474;SDS011;1248;48.694;10.160;2024-01-15T04:29:39;23.17;;;9.93;;
2474;SDS011;1248;48.694;10.160;2024-01-15T04:32:06;22.60;;;10.37;;
2474;SDS011;1248;48.694;10.160;2024-01-15T04:34:33;19.30;;;9.83;;
2474;SDS011;1248;48.694;10.160;2024-01-15T04:37:00;17.00;;;9.53;;
2474;SDS011;1248;48.694;10.160;2024-01-15T04:39:27;22.57;;;10.97;;
2474;SDS011;1248;48.694;10.160;2024-01-15T04:41:55;15.10;;;8.37;;
2474;SDS011;1248;48.694;10.160;2024-01-15T04:44:22;19.80;;;9.97;;
2474;SDS011;1248;48.694;10.160;2024-01-15T04:46:49;14.90;;;8.93;;
2474;SDS011;1248;48.694;10.160;2024-01-15T04:49:16;16.83;;;9.73;;
2474;SDS011;1248;48.694;10.160;2024-01-15T04:51:43;15.43;;;8.87;;
2474;SDS011;1248;48.694;10.160;2024-01-15T04:54:10;14.57;;;9.00;;
2474;SDS011;1248;48.694;10.160;2024-01-15T04:56:38;15.03;;;9.83;;
2474;SDS011;1248;48.694;10.160;2024-01-15T04:59:06;14.43;;;9.40;;
2474;SDS011;1248;48.694;10.160;2024-01-15T05:01:33;16.90;;;10.00;;
2474;SDS011;1248;48.694;10.160;2024-01-15T05:04:00;16.53;;;9.07;;
2474;SDS011;1248;48.694;10.160;2024-01-15T05:06:27;19.47;;;9.37;;
2474;SDS011;1248;48.694;10.160;2024-01-15T05:08:54;18.20;;;8.27;;
2474;SDS011;1248;48.694;10.160;2024-01-15T05:11:21;15.33;;;9.37;;
2474;SDS011;1248;48.694;10.160;2024-01-15T05:13:48;19.07;;;9.17;;
2474;SDS011;1248;48.694;10.160;2024-01-15T05:16:17;21.33;;;11.30;;
2474;SDS011;1248;48.694;10.160;2024-01-15T05:18:44;17.03;;;10.20;;
2474;SDS011;1248;48.694;10.160;2024-01-15T05:21:11;14.53;;;8.60;;
2474;SDS011;1248;48.694;10.160;2024-01-15T05:23:38;10.63;;;8.07;;
2474;SDS011;1248;48.694;10.160;2024-01-15T05:26:05;20.40;;;9.77;;
2474;SDS011;1248;48.694;10.160;2024-01-15T05:28:34;15.33;;;9.20;;
2474;SDS011;1248;48.694;10.160;2024-01-15T05:31:01;17.00;;;10.30;;
2474;SDS011;1248;48.694;10.160;2024-01-15T05:33:31;16.20;;;8.30;;
2474;SDS011;1248;48.694;10.160;2024-01-15T05:35:58;12.27;;;8.77;;
2474;SDS011;1248;48.694;10.160;2024-01-15T05:38:25;12.93;;;8.63;;
2474;SDS011;1248;48.694;10.160;2024-01-15T05:40:52;16.20;;;9.53;;
2474;SDS011;1248;48.694;10.160;2024-01-15T05:43:19;17.80;;;9.00;;
2474;SDS011;1248;48.694;10.160;2024-01-15T05:45:46;21.23;;;10.63;;
2474;SDS011;1248;48.694;10.160;2024-01-15T05:48:13;19.60;;;9.87;;
2474;SDS011;1248;48.694;10.160;2024-01-15T05:50:41;18.60;;;10.40;;
2474;SDS011;1248;48.694;10.160;2024-01-15T05:53:08;13.67;;;9.27;;
2474;SDS011;1248;48.694;10.160;2024-01-15T05:55:36;15.03;;;8.77;;
2474;SDS011;1248;48.694;10.160;2024-01-15T05:58:03;16.67;;;9.23;;
2474;SDS011;1248;48.694;10.160;2024-01-15T06:00:30;14.53;;;9.00;;
2474;SDS011;1248;48.694;10.160;2024-01-15T06:02:58;11.00;;;8.30;;
2474;SDS011;1248;48.694;10.160;2024-01-15T06:05:25;13.90;;;9.70;;
2474;SDS011;1248;48.694;10.160;2024-01-15T06:07:54;17.23;;;9.10;;
2474;SDS011;1248;48.694;10.160;2024-01-15T06:10:21;20.13;;;9.30;;
2474;SDS011;1248;48.694;10.160;2024-01-15T06:12:48;16.57;;;8.70;;
2474;SDS011;1248;48.694;10.160;2024-01-15T06:15:15;15.03;;;8.77;;
2474;SDS011;1248;48.694;10.160;2024-01-15T06:17:42;16.60;;;9.57;;
2474;SDS011;1248;48.694;10.160;2024-01-15T06:20:09;16.60;;;9.10;;
2474;SDS011;1248;48.694;10.160;2024-01-15T06:22:37;14.70;;;9.40;;
2474;SDS011;1248;48.694;10.160;2024-01-15T06:25:07;15.27;;;9.90;;
2474;SDS011;1248;48.694;10.160;2024-01-15T06:27:35;20.27;;;9.27;;
2474;SDS011;1248;48.694;10.160;2024-01-15T06:30:02;18.30;;;8.20;;
2474;SDS011;1248;48.694;10.160;2024-01-15T06:32:30;13.70;;;8.60;;
2474;SDS011;1248;48.694;10.160;2024-01-15T06:34:57;16.63;;;9.47;;
2474;SDS011;1248;48.694;10.160;2024-01-15T06:37:24;16.13;;;9.50;;
2474;SDS011;1248;48.694;10.160;2024-01-15T06:39:51;16.10;;;10.07;;
2474;SDS011;1248;48.694;10.160;2024-01-15T06:42:19;14.97;;;9.00;;
2474;SDS011;1248;48.694;10.160;2024-01-15T06:44:47;16.90;;;9.20;;
2474;SDS011;1248;48.694;10.160;2024-01-15T06:47:14;16.80;;;9.43;;
2474;SDS011;1248;48.694;10.160;2024-01-15T06:49:43;16.23;;;9.43;;
2474;SDS011;1248;48.694;10.160;2024-01-15T06:52:10;14.67;;;9.70;;
2474;SDS011;1248;48.694;10.160;2024-01-15T06:54:38;17.80;;;9.97;;
2474;SDS011;1248;48.694;10.160;2024-01-15T06:57:05;15.37;;;9.40;;
2474;SDS011;1248;48.694;10.160;2024-01-15T06:59:34;15.07;;;8.90;;
2474;SDS011;1248;48.694;10.160;2024-01-15T07:02:01;20.63;;;9.40;;
2474;SDS011;1248;48.694;10.160;2024-01-15T07:04:29;12.93;;;8.40;;
2474;SDS011;1248;48.694;10.160;2024-01-15T07:06:56;16.70;;;8.35;;
2474;SDS011;1248;48.694;10.160;2024-01-15T07:09:23;18.50;;;9.60;;
2474;SDS011;1248;48.694;10.160;2024-01-15T07:11:50;18.07;;;10.57;;
2474;SDS011;1248;48.694;10.160;2024-01-15T07:14:17;14.93;;;8.90;;
2474;SDS011;1248;48.694;10.160;2024-01-15T07:16:45;15.70;;;10.40;;
2474;SDS011;1248;48.694;10.160;2024-01-15T07:19:12;14.43;;;9.57;;
2474;SDS011;1248;48.694;10.160;2024-01-15T07:21:39;20.23;;;10.63;;
2474;SDS011;1248;48.694;10.160;2024-01-15T07:24:08;17.23;;;8.83;;
2474;SDS011;1248;48.694;10.160;2024-01-15T07:26:36;20.90;;;9.10;;
2474;SDS011;1248;48.694;10.160;2024-01-15T07:29:03;13.70;;;8.57;;
2474;SDS011;1248;48.694;10.160;2024-01-15T07:31:30;18.73;;;12.13;;
2474;SDS011;1248;48.694;10.160;2024-01-15T07:33:59;17.23;;;11.07;;
2474;SDS011;1248;48.694;10.160;2024-01-15T07:36:26;17.33;;;9.97;;
2474;SDS011;1248;48.694;10.160;2024-01-15T07:38:53;18.90;;;10.20;;
2474;SDS011;1248;48.694;10.160;2024-01-15T07:41:20;18.30;;;9.47;;
2474;SDS011;1248;48.694;10.160;2024-01-15T07:43:47;18.30;;;9.73;;
2474;SDS011;1248;48.694;10.160;2024-01-15T07:46:14;14.30;;;9.50;;
2474;SDS011;1248;48.694;10.160;2024-01-15T07:48:41;22.13;;;11.53;;
2474;SDS011;1248;48.694;10.160;2024-01-15T07:51:10;13.70;;;8.37;;
2474;SDS011;1248;48.694;10.160;2024-01-15T07:53:37;14.17;;;9.03;;
2474;SDS011;1248;48.694;10.160;2024-01-15T07:56:04;13.67;;;8.97;;
2474;SDS011;1248;48.694;10.160;2024-01-15T07:58:31;13.83;;;8.47;;
2474;SDS011;1248;48.694;10.160;2024-01-15T08:00:58;14.70;;;8.10;;
2474;SDS011;1248;48.694;10.160;2024-01-15T08:03:26;15.50;;;8.90;;
2474;SDS011;1248;48.694;10.160;2024-01-15T08:05:53;11.80;;;8.30;;
2474;SDS011;1248;48.694;10.160;2024-01-15T08:08:22;16.50;;;9.07;;
2474;SDS011;1248;48.694;10.160;2024-01-15T08:10:49;12.27;;;9.60;;
2474;SDS011;1248;48.694;10.160;2024-01-15T08:13:16;12.77;;;9.30;;
2474;SDS011;1248;48.694;10.160;2024-01-15T08:15:44;16.70;;;9.60;;
2474;SDS011;1248;48.694;10.160;2024-01-15T08:18:11;12.20;;;8.20;;
2474;SDS011;1248;48.694;10.160;2024-01-15T08:20:38;19.83;;;9.00;;
2474;SDS011;1248;48.694;10.160;2024-01-15T08:23:05;18.60;;;8.47;;
2474;SDS011;1248;48.694;10.160;2024-01-15T08:25:33;10.97;;;7.97;;
2474;SDS011;1248;48.694;10.160;2024-01-15T08:28:00;12.60;;;8.50;;
2474;SDS011;1248;48.694;10.160;2024-01-15T08:30:27;11.83;;;8.40;;
2474;SDS011;1248;48.694;10.160;2024-01-15T08:32:54;15.50;;;7.63;;
2474;SDS011;1248;48.694;10.160;2024-01-15T08:35:21;12.10;;;9.40;;
2474;SDS011;1248;48.694;10.160;2024-01-15T08:37:50;13.60;;;9.07;;
2474;SDS011;1248;48.694;10.160;2024-01-15T08:40:17;13.10;;;9.37;;
2474;SDS011;1248;48.694;10.160;2024-01-15T08:42:46;18.80;;;9.00;;
2474;SDS011;1248;48.694;10.160;2024-01-15T08:45:13;12.13;;;8.43;;
2474;SDS011;1248;48.694;10.160;2024-01-15T08:47:40;17.23;;;9.40;;
2474;SDS011;1248;48.694;10.160;2024-01-15T08:50:07;11.77;;;8.20;;
2474;SDS011;1248;48.694;10.160;2024-01-15T08:52:36;14.20;;;7.90;;
2474;SDS011;1248;48.694;10.160;2024-01-15T08:55:03;11.70;;;8.00;;
2474;SDS011;1248;48.694;10.160;2024-01-15T08:57:32;9.77;;;7.67;;
2474;SDS011;1248;48.694;10.160;2024-01-15T09:00:01;15.37;;;9.20;;
2474;SDS011;1248;48.694;10.160;2024-01-15T09:02:29;17.17;;;8.73;;
2474;SDS011;1248;48.694;10.160;2024-01-15T09:04:56;15.90;;;8.20;;
2474;SDS011;1248;48.694;10.160;2024-01-15T09:07:23;14.60;;;7.80;;
2474;SDS011;1248;48.694;10.160;2024-01-15T09:09:58;14.10;;;7.63;;
2474;SDS011;1248;48.694;10.160;2024-01-15T09:12:25;14.97;;;9.53;;
2474;SDS011;1248;48.694;10.160;2024-01-15T09:14:52;14.87;;;8.73;;
2474;SDS011;1248;48.694;10.160;2024-01-15T09:17:20;15.67;;;8.77;;
2474;SDS011;1248;48.694;10.160;2024-01-15T09:19:49;14.57;;;8.20;;
2474;SDS011;1248;48.694;10.160;2024-01-15T09:22:16;16.13;;;8.30;;
2474;SDS011;1248;48.694;10.160;2024-01-15T09:24:44;11.17;;;8.13;;
2474;SDS011;1248;48.694;10.160;2024-01-15T09:27:11;11.27;;;8.47;;
2474;SDS011;1248;48.694;10.160;2024-01-15T09:29:38;9.70;;;6.93;;
2474;SDS011;1248;48.694;10.160;2024-01-15T09:32:07;9.47;;;7.27;;
2474;SDS011;1248;48.694;10.160;2024-01-15T09:34:36;15.23;;;7.53;;
2474;SDS011;1248;48.694;10.160;2024-01-15T09:37:03;10.50;;;7.30;;
2474;SDS011;1248;48.694;10.160;2024-01-15T09:39:30;10.80;;;7.50;;
2474;SDS011;1248;48.694;10.160;2024-01-15T09:41:57;12.70;;;7.93;;
2474;SDS011;1248;48.694;10.160;2024-01-15T09:44:25;14.33;;;7.90;;
2474;SDS011;1248;48.694;10.160;2024-01-15T09:46:52;14.30;;;7.33;;
2474;SDS011;1248;48.694;10.160;2024-01-15T09:49:20;11.13;;;8.00;;
2474;SDS011;1248;48.694;10.160;2024-01-15T09:51:49;11.03;;;7.13;;
2474;SDS011;1248;48.694;10.160;2024-01-15T09:54:16;11.50;;;7.70;;
2474;SDS011;1248;48.694;10.160;2024-01-15T09:56:45;11.50;;;7.60;;
2474;SDS011;1248;48.694;10.160;2024-01-15T09:59:12;14.80;;;7.87;;
2474;SDS011;1248;48.694;10.160;2024-01-15T10:01:41;11.63;;;7.30;;
2474;SDS011;1248;48.694;10.160;2024-01-15T10:04:08;14.03;;;7.13;;
2474;SDS011;1248;48.694;10.160;2024-01-15T10:06:36;12.30;;;6.87;;
2474;SDS011;1248;48.694;10.160;2024-01-15T10:09:06;10.60;;;6.60;;
2474;SDS011;1248;48.694;10.160;2024-01-15T10:11:34;9.40;;;7.00;;
2474;SDS011;1248;48.694;10.160;2024-01-15T10:14:02;11.00;;;7.03;;
2474;SDS011;1248;48.694;10.160;2024-01-15T10:16:29;10.27;;;7.03;;
2474;SDS011;1248;48.694;10.160;2024-01-15T10:18:57;9.83;;;6.60;;
2474;SDS011;1248;48.694;10.160;2024-01-15T10:21:24;9.50;;;7.00;;
2474;SDS011;1248;48.694;10.160;2024-01-15T10:23:52;13.50;;;7.97;;
2474;SDS011;1248;48.694;10.160;2024-01-15T10:26:20;8.13;;;6.07;;
2474;SDS011;1248;48.694;10.160;2024-01-15T10:28:51;11.33;;;7.30;;
2474;SDS011;1248;48.694;10.160;2024-01-15T10:31:18;10.17;;;6.03;;
2474;SDS011;1248;48.694;10.160;2024-01-15T10:33:47;8.87;;;5.93;;
2474;SDS011;1248;48.694;10.160;2024-01-15T10:36:14;11.00;;;7.20;;
2474;SDS011;1248;48.694;10.160;2024-01-15T10:38:42;15.53;;;7.67;;
2474;SDS011;1248;48.694;10.160;2024-01-15T10:41:10;8.70;;;6.80;;
2474;SDS011;1248;48.694;10.160;2024-01-15T10:43:39;7.67;;;6.80;;
2474;SDS011;1248;48.694;10.160;2024-01-15T10:46:06;10.07;;;6.90;;
2474;SDS011;1248;48.694;10.160;2024-01-15T10:48:34;13.47;;;7.23;;
2474;SDS011;1248;48.694;10.160;2024-01-15T10:51:01;7.50;;;6.17;;
2474;SDS011;1248;48.694;10.160;2024-01-15T10:53:36;10.47;;;6.20;;
2474;SDS011;1248;48.694;10.160;2024-01-15T10:56:04;8.33;;;6.20;;
2474;SDS011;1248;48.694;10.160;2024-01-15T10:58:31;8.90;;;5.47;;
2474;SDS011;1248;48.694;10.160;2024-01-15T11:01:01;6.60;;;5.10;;
2474;SDS011;1248;48.694;10.160;2024-01-15T11:03:30;5.60;;;4.97;;
2474;SDS011;1248;48.694;10.160;2024-01-15T11:05:57;6.10;;;5.40;;
2474;SDS011;1248;48.694;10.160;2024-01-15T11:08:24;8.63;;;6.30;;
2474;SDS011;1248;48.694;10.160;2024-01-15T11:10:52;7.37;;;5.70;;
2474;SDS011;1248;48.694;10.160;2024-01-15T11:13:20;5.73;;;5.23;;
2474;SDS011;1248;48.694;10.160;2024-01-15T11:15:54;14.90;;;5.67;;
2474;SDS011;1248;48.694;10.160;2024-01-15T11:18:23;6.87;;;5.03;;
2474;SDS011;1248;48.694;10.160;2024-01-15T11:23:53;10.23;;;6.60;;
2474;SDS011;1248;48.694;10.160;2024-01-15T11:26:29;6.20;;;4.77;;
2474;SDS011;1248;48.694;10.160;2024-01-15T11:28:57;7.87;;;4.53;;
2474;SDS011;1248;48.694;10.160;2024-01-15T11:31:26;7.27;;;5.40;;
2474;SDS011;1248;48.694;10.160;2024-01-15T11:33:55;6.93;;;5.20;;
2474;SDS011;1248;48.694;10.160;2024-01-15T11:39:39;9.30;;;6.10;;
2474;SDS011;1248;48.694;10.160;2024-01-15T11:42:09;10.40;;;6.20;;
2474;SDS011;1248;48.694;10.160;2024-01-15T11:44:36;9.83;;;4.97;;
2474;SDS011;1248;48.694;10.160;2024-01-15T11:47:04;9.87;;;5.63;;
2474;SDS011;1248;48.694;10.160;2024-01-15T11:49:37;6.23;;;5.63;;
2474;SDS011;1248;48.694;10.160;2024-01-15T11:52:25;11.10;;;6.50;;
2474;SDS011;1248;48.694;10.160;2024-01-15T11:54:54;6.23;;;4.53;;
2474;SDS011;1248;48.694;10.160;2024-01-15T11:57:25;6.17;;;4.67;;
2474;SDS011;1248;48.694;10.160;2024-01-15T11:59:54;9.27;;;5.73;;
2474;SDS011;1248;48.694;10.160;2024-01-15T12:02:21;8.77;;;4.80;;
2474;SDS011;1248;48.694;10.160;2024-01-15T12:04:50;5.73;;;5.13;;
2474;SDS011;1248;48.694;10.160;2024-01-15T12:07:17;5.20;;;4.73;;
2474;SDS011;1248;48.694;10.160;2024-01-15T12:09:44;8.30;;;5.37;;
2474;SDS011;1248;48.694;10.160;2024-01-15T12:12:13;6.70;;;4.70;;
2474;SDS011;1248;48.694;10.160;2024-01-15T12:14:46;6.40;;;5.33;;
2474;SDS011;1248;48.694;10.160;2024-01-15T12:17:13;7.70;;;5.20;;
2474;SDS011;1248;48.694;10.160;2024-01-15T12:19:40;9.47;;;5.03;;
2474;SDS011;1248;48.694;10.160;2024-01-15T12:22:08;7.83;;;5.10;;
2474;SDS011;1248;48.694;10.160;2024-01-15T12:24:36;7.97;;;5.70;;
2474;SDS011;1248;48.694;10.160;2024-01-15T12:27:03;6.97;;;5.70;;
2474;SDS011;1248;48.694;10.160;2024-01-15T12:29:30;9.67;;;5.50;;
2474;SDS011;1248;48.694;10.160;2024-01-15T12:31:57;7.00;;;5.23;;
2474;SDS011;1248;48.694;10.160;2024-01-15T12:34:28;7.77;;;5.70;;
2474;SDS011;1248;48.694;10.160;2024-01-15T12:36:56;6.13;;;5.53;;
2474;SDS011;1248;48.694;10.160;2024-01-15T12:39:25;6.03;;;5.40;;
2474;SDS011;1248;48.694;10.160;2024-01-15T12:41:52;8.33;;;6.53;;
2474;SDS011;1248;48.694;10.160;2024-01-15T12:44:19;8.40;;;6.10;;
2474;SDS011;1248;48.694;10.160;2024-01-15T12:46:47;9.70;;;6.30;;
2474;SDS011;1248;48.694;10.160;2024-01-15T12:49:14;10.27;;;6.07;;
2474;SDS011;1248;48.694;10.160;2024-01-15T12:51:41;10.00;;;6.50;;
2474;SDS011;1248;48.694;10.160;2024-01-15T12:54:08;8.70;;;6.30;;
2474;SDS011;1248;48.694;10.160;2024-01-15T12:56:37;7.63;;;6.17;;
2474;SDS011;1248;48.694;10.160;2024-01-15T12:59:04;8.43;;;6.20;;
2474;SDS011;1248;48.694;10.160;2024-01-15T13:01:31;10.03;;;6.60;;
2474;SDS011;1248;48.694;10.160;2024-01-15T13:03:58;7.10;;;6.10;;
2474;SDS011;1248;48.694;10.160;2024-01-15T13:06:26;7.37;;;6.57;;
2474;SDS011;1248;48.694;10.160;2024-01-15T13:08:53;9.93;;;6.30;;
2474;SDS011;1248;48.694;10.160;2024-01-15T13:11:20;9.80;;;6.47;;
2474;SDS011;1248;48.694;10.160;2024-01-15T13:13:48;8.50;;;6.60;;
2474;SDS011;1248;48.694;10.160;2024-01-15T13:16:15;9.20;;;7.10;;
2474;SDS011;1248;48.694;10.160;2024-01-15T13:18:43;8.30;;;6.63;;
2474;SDS011;1248;48.694;10.160;2024-01-15T13:21:10;8.17;;;5.60;;
2474;SDS011;1248;48.694;10.160;2024-01-15T13:23:38;6.13;;;5.53;;
2474;SDS011;1248;48.694;10.160;2024-01-15T13:26:05;10.17;;;5.80;;
2474;SDS011;1248;48.694;10.160;2024-01-15T13:28:32;7.50;;;5.87;;
2474;SDS011;1248;48.694;10.160;2024-01-15T13:31:01;8.30;;;6.67;;
2474;SDS011;1248;48.694;10.160;2024-01-15T13:33:28;12.97;;;6.27;;
2474;SDS011;1248;48.694;10.160;2024-01-15T13:35:55;7.60;;;6.87;;
2474;SDS011;1248;48.694;10.160;2024-01-15T13:38:22;7.23;;;6.50;;
2474;SDS011;1248;48.694;10.160;2024-01-15T13:40:50;8.33;;;6.03;;
2474;SDS011;1248;48.694;10.160;2024-01-15T13:43:17;6.30;;;5.57;;
2474;SDS011;1248;48.694;10.160;2024-01-15T13:45:44;12.27;;;6.13;;
2474;SDS011;1248;48.694;10.160;2024-01-15T13:48:13;5.50;;;5.00;;
2474;SDS011;1248;48.694;10.160;2024-01-15T13:50:40;5.90;;;5.30;;
2474;SDS011;1248;48.694;10.160;2024-01-15T13:53:07;5.93;;;5.43;;
2474;SDS011;1248;48.694;10.160;2024-01-15T13:55:35;5.50;;;4.83;;
2474;SDS011;1248;48.694;10.160;2024-01-15T13:58:02;5.27;;;4.77;;
2474;SDS011;1248;48.694;10.160;2024-01-15T14:00:31;4.83;;;4.23;;
2474;SDS011;1248;48.694;10.160;2024-01-15T14:02:58;6.27;;;4.70;;
2474;SDS011;1248;48.694;10.160;2024-01-15T14:05:27;6.20;;;5.37;;
2474;SDS011;1248;48.694;10.160;2024-01-15T14:07:54;7.97;;;6.20;;
2474;SDS011;1248;48.694;10.160;2024-01-15T14:10:21;8.60;;;6.40;;
2474;SDS011;1248;48.694;10.160;2024-01-15T14:12:48;9.50;;;6.33;;
2474;SDS011;1248;48.694;10.160;2024-01-15T14:15:15;9.20;;;6.10;;
2474;SDS011;1248;48.694;10.160;2024-01-15T14:17:42;7.50;;;5.50;;
2474;SDS011;1248;48.694;10.160;2024-01-15T14:20:09;5.17;;;4.33;;
2474;SDS011;1248;48.694;10.160;2024-01-15T14:22:38;6.80;;;5.47;;
2474;SDS011;1248;48.694;10.160;2024-01-15T14:25:06;8.17;;;6.17;;
2474;SDS011;1248;48.694;10.160;2024-01-15T14:27:33;8.50;;;6.40;;
2474;SDS011;1248;48.694;10.160;2024-01-15T14:30:02;5.83;;;5.30;;
2474;SDS011;1248;48.694;10.160;2024-01-15T14:32:31;10.33;;;7.50;;
2474;SDS011;1248;48.694;10.160;2024-01-15T14:34:58;7.57;;;5.70;;
2474;SDS011;1248;48.694;10.160;2024-01-15T14:37:25;7.63;;;5.10;;
2474;SDS011;1248;48.694;10.160;2024-01-15T14:39:54;10.27;;;5.37;;
2474;SDS011;1248;48.694;10.160;2024-01-15T14:42:21;5.60;;;5.00;;
2474;SDS011;1248;48.694;10.160;2024-01-15T14:44:49;7.50;;;5.07;;
2474;SDS011;1248;48.694;10.160;2024-01-15T14:47:16;6.40;;;5.73;;
2474;SDS011;1248;48.694;10.160;2024-01-15T14:49:44;6.60;;;5.23;;
2474;SDS011;1248;48.694;10.160;2024-01-15T14:52:11;5.87;;;5.23;;
2474;SDS011;1248;48.694;10.160;2024-01-15T14:54:38;6.03;;;4.97;;